createdAt,value
2022-11-21T00:00:10.584Z,5.38
2022-11-21T00:02:37.144Z,5.50
2022-11-21T00:07:29.330Z,5.65
2022-11-21T00:09:56.011Z,6.75
2022-11-21T00:12:22.583Z,5.40
2022-11-21T00:14:49.295Z,5.72
2022-11-21T00:17:16.002Z,5.75
2022-11-21T00:19:42.616Z,5.93
2022-11-21T00:24:34.685Z,5.13
2022-11-21T00:27:01.367Z,5.45
2022-11-21T00:29:28.212Z,5.85
2022-11-21T00:31:55.161Z,4.80
2022-11-21T00:34:21.809Z,5.35
2022-11-21T00:36:48.424Z,7.07
2022-11-21T00:39:15.112Z,5.20
2022-11-21T00:41:42.117Z,5.35
2022-11-21T00:44:08.725Z,5.28
2022-11-21T00:46:35.339Z,5.95
2022-11-21T00:49:02.266Z,5.13
2022-11-21T00:51:28.898Z,5.68
2022-11-21T00:53:55.514Z,5.18
2022-11-21T00:56:22.191Z,5.40
2022-11-21T00:58:48.789Z,5.25
2022-11-21T01:06:08.699Z,5.68
2022-11-21T01:11:05.153Z,5.70
2022-11-21T01:13:32.368Z,6.07
2022-11-21T01:16:06.200Z,5.30
2022-11-21T01:18:33.097Z,5.50
2022-11-21T01:21:03.831Z,5.40
2022-11-21T01:23:30.655Z,4.78
2022-11-21T01:26:07.844Z,5.05
2022-11-21T01:35:57.024Z,4.95
2022-11-21T01:38:23.808Z,5.20
2022-11-21T01:40:50.426Z,5.20
2022-11-21T01:45:56.229Z,4.60
2022-11-21T01:50:52.019Z,4.95
2022-11-21T01:53:18.771Z,5.07
2022-11-21T02:00:39.197Z,5.85
2022-11-21T02:03:09.592Z,6.47
2022-11-21T02:05:38.101Z,4.70
2022-11-21T02:08:15.308Z,5.13
2022-11-21T02:10:44.690Z,5.05
2022-11-21T02:13:11.756Z,4.38
2022-11-21T02:15:38.353Z,4.55
2022-11-21T02:18:06.437Z,5.20
2022-11-21T02:20:33.092Z,5.25
2022-11-21T02:23:18.799Z,4.75
2022-11-21T02:25:45.634Z,5.22
2022-11-21T02:28:13.950Z,5.78
2022-11-21T02:33:07.084Z,5.15
2022-11-21T02:35:34.160Z,4.63
2022-11-21T02:38:03.622Z,4.85
2022-11-21T02:40:34.882Z,4.82
2022-11-21T02:43:30.820Z,4.38
2022-11-21T02:45:59.183Z,4.95
2022-11-21T02:48:25.877Z,5.07
2022-11-21T02:50:52.681Z,5.43
2022-11-21T02:53:19.463Z,5.18
2022-11-21T02:55:46.158Z,4.57
2022-11-21T03:10:21.529Z,6.00
2022-11-21T03:17:40.290Z,5.50
2022-11-21T03:20:07.737Z,6.30
2022-11-21T03:22:34.555Z,5.35
2022-11-21T03:25:01.258Z,5.72
2022-11-21T03:29:54.065Z,6.13
2022-11-21T03:32:20.663Z,5.78
2022-11-21T03:39:38.147Z,6.28
2022-11-21T03:42:04.854Z,5.65
2022-11-21T03:44:31.491Z,6.40
2022-11-21T03:46:58.081Z,7.32
2022-11-21T03:49:24.773Z,6.75
2022-11-21T03:51:51.359Z,7.13
2022-11-21T03:54:18.033Z,7.25
2022-11-21T03:56:44.671Z,7.00
2022-11-21T03:59:11.885Z,5.97
2022-11-21T04:04:04.154Z,6.47
2022-11-21T04:06:31.788Z,7.38
2022-11-21T04:08:58.427Z,7.00
2022-11-21T04:11:25.140Z,6.35
2022-11-21T04:13:54.827Z,7.35
2022-11-21T04:16:21.673Z,6.45
2022-11-21T04:18:48.316Z,6.25
2022-11-21T04:21:14.893Z,7.38
2022-11-21T04:23:41.562Z,7.43
2022-11-21T04:26:08.370Z,7.50
2022-11-21T04:28:35.001Z,7.15
2022-11-21T04:35:52.400Z,7.47
2022-11-21T04:38:19.091Z,7.60
2022-11-21T04:40:45.789Z,7.00
2022-11-21T04:52:55.866Z,6.90
2022-11-21T04:55:26.243Z,7.25
2022-11-21T04:57:53.725Z,6.97
2022-11-21T05:00:24.477Z,7.53
2022-11-21T05:02:51.514Z,7.80
2022-11-21T05:07:43.722Z,7.85
2022-11-21T05:10:10.443Z,8.18
2022-11-21T05:20:55.365Z,8.68
2022-11-21T05:23:22.133Z,9.00
2022-11-21T05:25:48.792Z,8.32
2022-11-21T05:30:40.982Z,9.50
2022-11-21T05:33:07.685Z,9.52
2022-11-21T05:35:37.668Z,8.48
2022-11-21T05:38:06.932Z,8.95
2022-11-21T05:40:33.653Z,9.27
2022-11-21T05:45:44.011Z,8.98
2022-11-21T05:48:10.699Z,8.98
2022-11-21T05:50:37.484Z,9.48
2022-11-21T05:55:30.647Z,9.07
2022-11-21T05:58:01.014Z,8.77
2022-11-21T06:00:28.346Z,8.90
2022-11-21T06:03:13.645Z,8.18
2022-11-21T06:08:05.866Z,7.43
2022-11-21T06:10:32.520Z,8.48
2022-11-21T06:17:53.954Z,7.90
2022-11-21T06:20:20.668Z,6.68
2022-11-21T06:27:38.306Z,7.32
2022-11-21T06:34:56.067Z,8.20
2022-11-21T06:42:14.354Z,7.85
2022-11-21T06:47:06.381Z,8.05
2022-11-21T06:49:33.105Z,8.98
2022-11-21T06:51:59.763Z,6.32
2022-11-21T06:56:52.240Z,6.40
2022-11-21T06:59:18.878Z,6.10
2022-11-21T07:01:45.597Z,6.78
2022-11-21T07:04:12.733Z,6.47
2022-11-21T07:06:39.343Z,6.00
2022-11-21T07:09:31.484Z,6.55
2022-11-21T07:11:52.551Z,6.55
2022-11-21T07:14:19.254Z,6.43
2022-11-21T07:16:45.930Z,6.32
2022-11-21T07:19:12.662Z,6.07
2022-11-21T07:21:39.325Z,4.97
2022-11-21T07:24:06.225Z,5.70
2022-11-21T07:26:32.836Z,5.63
2022-11-21T07:31:25.003Z,5.43
2022-11-21T07:33:51.769Z,4.03
2022-11-21T07:38:45.977Z,4.18
2022-11-21T07:41:12.730Z,4.43
2022-11-21T07:43:39.321Z,4.28
2022-11-21T07:46:05.988Z,4.03
2022-11-21T07:48:32.747Z,4.53
2022-11-21T07:50:59.329Z,4.00
2022-11-21T07:58:17.037Z,4.50
2022-11-21T08:03:09.340Z,4.80
2022-11-21T08:05:39.820Z,4.55
2022-11-21T08:08:07.005Z,4.85
2022-11-21T08:10:34.196Z,3.90
2022-11-21T08:13:00.778Z,4.03
2022-11-21T08:17:52.858Z,3.65
2022-11-21T08:20:19.566Z,4.25
2022-11-21T08:25:11.715Z,4.40
2022-11-21T08:42:03.102Z,4.25
2022-11-21T08:44:33.452Z,5.22
2022-11-21T08:47:00.712Z,3.40
2022-11-21T08:56:48.490Z,4.32
2022-11-21T08:59:15.644Z,4.53
2022-11-21T09:01:42.358Z,3.50
2022-11-21T09:06:34.920Z,4.38
2022-11-21T09:09:01.607Z,4.38
2022-11-21T09:14:12.215Z,4.30
2022-11-21T09:17:01.819Z,4.03
2022-11-21T09:19:29.891Z,4.43
2022-11-21T09:21:56.697Z,4.85
2022-11-21T09:24:23.488Z,4.00
2022-11-21T09:26:50.142Z,4.25
2022-11-21T09:29:16.854Z,4.15
2022-11-21T09:31:44.053Z,3.85
2022-11-21T09:34:10.922Z,4.78
2022-11-21T09:36:37.853Z,4.88
2022-11-21T09:44:29.844Z,4.15
2022-11-21T09:47:02.774Z,4.05
2022-11-21T09:49:30.205Z,4.75
2022-11-21T09:51:57.795Z,4.78
2022-11-21T09:54:31.731Z,4.22
2022-11-21T09:56:59.774Z,4.68
2022-11-21T10:04:28.051Z,4.38
2022-11-21T10:09:32.213Z,3.30
2022-11-21T10:12:23.929Z,4.72
2022-11-21T10:14:53.360Z,3.90
2022-11-21T10:17:39.500Z,4.25
2022-11-21T10:20:09.093Z,4.18
2022-11-21T10:22:43.182Z,4.30
2022-11-21T10:25:09.895Z,3.83
2022-11-21T10:27:45.536Z,3.33
2022-11-21T10:30:19.690Z,3.30
2022-11-21T10:32:47.860Z,3.38
2022-11-21T10:35:16.257Z,3.88
2022-11-21T10:42:56.436Z,3.47
2022-11-21T10:45:23.530Z,3.60
2022-11-21T10:47:50.851Z,3.03
2022-11-21T10:50:20.742Z,3.63
2022-11-21T10:52:49.766Z,3.28
2022-11-21T10:55:17.354Z,3.13
2022-11-21T11:00:15.926Z,3.17
2022-11-21T11:02:58.474Z,3.65
2022-11-21T11:05:26.122Z,4.15
2022-11-21T11:08:00.605Z,3.28
2022-11-21T11:10:28.457Z,3.38
2022-11-21T11:16:10.292Z,2.80
2022-11-21T11:18:39.457Z,2.45
2022-11-21T11:21:14.563Z,2.90
2022-11-21T11:26:18.777Z,1.90
2022-11-21T11:31:11.346Z,1.67
2022-11-21T11:33:39.236Z,1.48
2022-11-21T11:36:14.009Z,1.30
2022-11-21T11:38:47.200Z,1.60
2022-11-21T11:47:14.271Z,5.55
2022-11-21T11:50:15.773Z,3.03
2022-11-21T11:58:03.309Z,2.60
2022-11-21T12:00:29.994Z,1.70
2022-11-21T12:05:40.062Z,2.03
2022-11-21T12:11:13.458Z,2.63
2022-11-21T12:13:40.347Z,2.30
2022-11-21T12:16:13.704Z,2.38
2022-11-21T12:18:47.874Z,1.67
2022-11-21T12:21:15.825Z,1.70
2022-11-21T12:27:00.094Z,0.60
2022-11-21T12:29:33.011Z,0.95
2022-11-21T12:32:21.193Z,0.82
2022-11-21T12:34:55.833Z,0.60
2022-11-21T12:37:59.092Z,1.10
2022-11-21T12:40:47.897Z,1.60
2022-11-21T12:43:20.516Z,1.10
2022-11-21T12:45:51.173Z,1.30
2022-11-21T12:48:55.577Z,2.13
2022-11-21T12:51:40.546Z,0.70
2022-11-21T12:54:31.810Z,0.82
2022-11-21T13:04:36.151Z,0.88
2022-11-21T13:07:03.193Z,0.90
2022-11-21T13:09:32.547Z,1.10
2022-11-21T13:11:59.173Z,1.30
2022-11-21T13:14:25.784Z,1.02
2022-11-21T13:19:42.281Z,2.08
2022-11-21T13:24:56.538Z,2.55
2022-11-21T13:27:28.630Z,2.92
2022-11-21T13:35:19.971Z,3.80
2022-11-21T13:37:49.841Z,4.03
2022-11-21T13:43:32.116Z,3.83
2022-11-21T13:45:58.579Z,4.35
2022-11-21T13:48:40.343Z,5.20
2022-11-21T13:53:58.141Z,5.18
2022-11-21T13:59:13.011Z,3.95
2022-11-21T14:01:40.124Z,4.38
2022-11-21T14:06:39.114Z,3.13
2022-11-21T14:17:04.689Z,2.97
2022-11-21T14:19:32.383Z,3.95
2022-11-21T14:22:00.785Z,2.83
2022-11-21T14:24:27.574Z,3.63
2022-11-21T14:26:54.889Z,5.03
2022-11-21T14:29:28.253Z,3.72
2022-11-21T14:31:55.875Z,3.47
2022-11-21T14:34:26.850Z,3.40
2022-11-21T14:36:54.824Z,3.85
2022-11-21T14:44:20.452Z,2.72
2022-11-21T14:46:47.856Z,2.67
2022-11-21T14:49:17.229Z,3.15
2022-11-21T14:51:51.557Z,3.42
2022-11-21T14:54:22.852Z,3.65
2022-11-21T14:59:23.825Z,3.15
2022-11-21T15:04:34.395Z,3.65
2022-11-21T15:07:01.224Z,4.25
2022-11-21T15:10:25.948Z,4.53
2022-11-21T15:17:16.185Z,3.33
2022-11-21T15:19:43.472Z,3.15
2022-11-21T15:22:20.177Z,3.03
2022-11-21T15:24:47.268Z,4.00
2022-11-21T15:27:23.651Z,3.53
2022-11-21T15:30:00.862Z,3.35
2022-11-21T15:34:53.286Z,3.55
2022-11-21T15:37:20.494Z,3.20
2022-11-21T15:47:47.117Z,3.67
2022-11-21T15:50:14.145Z,4.32
2022-11-21T15:52:48.285Z,3.03
2022-11-21T15:55:22.929Z,4.05
2022-11-21T16:00:17.296Z,3.15
2022-11-21T16:02:43.971Z,3.10
2022-11-21T16:07:37.151Z,3.03
2022-11-21T16:10:04.072Z,3.65
2022-11-21T16:12:30.738Z,3.53
2022-11-21T16:14:57.387Z,3.35
2022-11-21T16:17:23.988Z,3.92
2022-11-21T16:22:16.876Z,2.65
2022-11-21T16:24:43.565Z,2.13
2022-11-21T16:27:10.263Z,2.47
2022-11-21T16:29:36.897Z,2.13
2022-11-21T16:32:03.565Z,2.78
2022-11-21T16:34:30.316Z,2.22
2022-11-21T16:36:56.929Z,2.50
2022-11-21T16:39:23.517Z,2.65
2022-11-21T16:44:16.255Z,4.72
2022-11-21T16:46:43.777Z,1.73
2022-11-21T16:49:10.571Z,2.22
2022-11-21T16:51:37.228Z,1.40
2022-11-21T16:54:08.525Z,1.95
2022-11-21T16:56:35.980Z,1.67
2022-11-21T16:59:05.404Z,1.83
2022-11-21T17:01:32.156Z,2.20
2022-11-21T17:06:27.282Z,2.17
2022-11-21T17:08:54.322Z,1.60
2022-11-21T17:16:20.667Z,1.70
2022-11-21T17:28:35.343Z,2.22
2022-11-21T17:31:12.324Z,2.88
2022-11-21T17:33:39.074Z,4.03
2022-11-21T17:36:06.688Z,3.72
2022-11-21T17:38:33.632Z,2.35
2022-11-21T17:41:03.723Z,2.90
2022-11-21T17:43:30.757Z,2.80
2022-11-21T17:46:06.352Z,2.85
2022-11-21T17:48:36.262Z,2.67
2022-11-21T17:51:04.266Z,2.10
2022-11-21T17:53:31.991Z,2.17
2022-11-21T18:00:55.557Z,3.53
2022-11-21T18:03:22.592Z,3.15
2022-11-21T18:10:44.253Z,2.33
2022-11-21T18:13:11.188Z,3.22
2022-11-21T18:15:40.820Z,2.72
2022-11-21T18:18:07.380Z,2.50
2022-11-21T18:20:33.924Z,2.10
2022-11-21T18:23:00.603Z,2.13
2022-11-21T18:25:27.235Z,3.30
2022-11-21T18:27:54.724Z,2.70
2022-11-21T18:30:21.660Z,2.70
2022-11-21T18:32:49.119Z,2.45
2022-11-21T18:37:42.286Z,1.98
2022-11-21T18:40:09.410Z,4.45
2022-11-21T18:47:27.585Z,9.13
2022-11-21T18:49:54.232Z,7.78
2022-11-21T18:52:20.871Z,5.75
2022-11-21T18:54:47.513Z,2.83
2022-11-21T19:02:05.317Z,2.75
2022-11-21T19:04:32.028Z,3.40
2022-11-21T19:06:58.664Z,3.50
2022-11-21T19:09:30.992Z,2.75
2022-11-21T19:11:59.179Z,3.95
2022-11-21T19:14:26.136Z,3.15
2022-11-21T19:16:52.936Z,3.65
2022-11-21T19:19:34.024Z,2.58
2022-11-21T19:24:26.999Z,3.55
2022-11-21T19:26:53.653Z,2.65
2022-11-21T19:29:20.406Z,2.83
2022-11-21T19:34:18.154Z,8.20
2022-11-21T19:36:45.309Z,5.47
2022-11-21T19:41:37.813Z,5.07
2022-11-21T19:44:04.586Z,4.50
2022-11-21T19:46:35.813Z,4.30
2022-11-21T19:49:03.904Z,4.43
2022-11-21T19:56:30.924Z,12.15
2022-11-21T20:03:56.728Z,4.38
2022-11-21T20:06:31.145Z,2.78
2022-11-21T20:11:24.975Z,3.78
2022-11-21T20:13:52.122Z,2.78
2022-11-21T20:18:49.536Z,2.85
2022-11-21T20:21:16.640Z,3.75
2022-11-21T20:26:12.070Z,5.18
2022-11-21T20:28:38.902Z,5.47
2022-11-21T20:31:05.536Z,7.18
2022-11-21T20:33:40.508Z,4.93
2022-11-21T20:36:08.428Z,4.50
2022-11-21T20:47:12.911Z,4.50
2022-11-21T20:49:40.400Z,3.75
2022-11-21T20:54:54.721Z,3.30
2022-11-21T20:57:21.359Z,4.25
2022-11-21T20:59:48.005Z,2.65
2022-11-21T21:04:40.288Z,3.15
2022-11-21T21:07:06.945Z,3.97
2022-11-21T21:09:33.632Z,2.50
2022-11-21T21:12:00.267Z,2.50
2022-11-21T21:14:26.839Z,2.47
2022-11-21T21:16:53.485Z,2.17
2022-11-21T21:19:22.526Z,2.35
2022-11-21T21:21:49.430Z,2.50
2022-11-21T21:24:16.134Z,2.00
2022-11-21T21:26:46.686Z,2.00
2022-11-21T21:38:58.453Z,2.63
2022-11-21T21:41:26.273Z,2.10
2022-11-21T21:51:16.115Z,2.42
2022-11-21T21:53:43.403Z,2.92
2022-11-21T21:56:10.417Z,2.45
2022-11-21T21:58:38.009Z,3.40
2022-11-21T22:01:05.844Z,2.25
2022-11-21T22:03:32.700Z,2.25
2022-11-21T22:08:41.505Z,2.08
2022-11-21T22:11:09.593Z,2.17
2022-11-21T22:13:37.157Z,1.80
2022-11-21T22:16:04.770Z,1.48
2022-11-21T22:18:31.859Z,2.47
2022-11-21T22:20:58.701Z,1.70
2022-11-21T22:23:25.318Z,1.95
2022-11-21T22:25:55.915Z,2.45
2022-11-21T22:33:20.820Z,2.00
2022-11-21T22:35:47.523Z,2.10
2022-11-21T22:38:15.293Z,1.75
2022-11-21T22:43:07.683Z,2.55
2022-11-21T22:45:37.244Z,1.92
2022-11-21T22:50:29.969Z,1.67
2022-11-21T22:52:56.640Z,2.33
2022-11-21T23:00:14.796Z,2.35
2022-11-21T23:05:07.033Z,2.20
2022-11-21T23:07:34.028Z,1.60
2022-11-21T23:10:00.749Z,2.15
2022-11-21T23:12:27.452Z,2.05
2022-11-21T23:14:54.033Z,1.70
2022-11-21T23:17:20.658Z,2.42
2022-11-21T23:19:47.282Z,2.33
2022-11-21T23:22:13.957Z,1.83
2022-11-21T23:24:40.583Z,1.70
2022-11-21T23:27:07.260Z,2.03
2022-11-21T23:29:33.889Z,1.95
2022-11-21T23:32:00.520Z,1.85
2022-11-21T23:34:27.206Z,1.63
2022-11-21T23:36:53.765Z,2.80
2022-11-21T23:39:20.341Z,3.83
2022-11-21T23:41:47.037Z,2.47
2022-11-21T23:44:13.680Z,2.80
2022-11-21T23:46:40.289Z,2.58
2022-11-21T23:49:06.996Z,3.10
2022-11-21T23:51:33.602Z,3.38
